Time;durP1;ratioP1;P1;durP2;ratioP2;P2;SDS_P1;SDS_P2;PMS_P1;PMS_P2;Temp;Humidity;BMP_temperature;BMP_pressure;BME280_temperature;BME280_humidity;BME280_pressure;Samples;Min_cycle;Max_cycle;Signal;HPM_P1;HPM_P2
2021/08/01 00:00:33;;;;;;;3.85;3.35;;;;;;;;;;5097805;28;20052;-78
2021/08/01 00:02:59;;;;;;;3.45;3.03;;;;;;;;;;5098539;28;20071;-79
2021/08/01 00:05:26;;;;;;;4.95;3.78;;;;;;;;;;5082098;28;20028;-78
2021/08/01 00:07:52;;;;;;;4.57;3.60;;;;;;;;;;5078137;28;20108;-80
2021/08/01 00:10:18;;;;;;;4.05;3.65;;;;;;;;;;5076558;28;20111;-79
2021/08/01 00:12:44;;;;;;;3.67;3.33;;;;;;;;;;5077538;28;20029;-79
2021/08/01 00:15:13;;;;;;;4.43;3.47;;;;;;;;;;5087556;28;20059;-79
2021/08/01 00:17:40;;;;;;;3.88;3.53;;;;;;;;;;5089868;28;20235;-80
2021/08/01 00:20:06;;;;;;;5.30;3.30;;;;;;;;;;5100959;28;20044;-79
2021/08/01 00:22:32;;;;;;;3.33;3.00;;;;;;;;;;5103401;28;20053;-80
2021/08/01 00:25:00;;;;;;;3.35;3.05;;;;;;;;;;5100806;28;20033;-80
2021/08/01 00:27:26;;;;;;;4.13;3.58;;;;;;;;;;5081816;28;20044;-79
2021/08/01 00:29:52;;;;;;;3.30;2.90;;;;;;;;;;5081505;28;20031;-79
2021/08/01 00:32:18;;;;;;;3.40;3.10;;;;;;;;;;5079246;28;20025;-80
2021/08/01 00:34:44;;;;;;;3.05;2.75;;;;;;;;;;5080024;28;20029;-78
2021/08/01 00:37:10;;;;;;;3.75;3.45;;;;;;;;;;5097760;28;20099;-78
2021/08/01 00:39:36;;;;;;;3.15;2.95;;;;;;;;;;5098515;28;20079;-80
2021/08/01 00:42:02;;;;;;;3.92;3.60;;;;;;;;;;5098333;28;20028;-78
2021/08/01 00:44:28;;;;;;;3.65;3.00;;;;;;;;;;5096716;28;20104;-80
2021/08/01 00:46:55;;;;;;;4.72;3.47;;;;;;;;;;5088208;28;20017;-77
2021/08/01 00:49:21;;;;;;;3.15;2.90;;;;;;;;;;5111500;28;20020;-78
2021/08/01 00:51:47;;;;;;;3.85;3.50;;;;;;;;;;5105752;28;20043;-76
2021/08/01 00:54:13;;;;;;;4.00;3.50;;;;;;;;;;5109474;28;20080;-77
2021/08/01 00:56:39;;;;;;;3.80;3.40;;;;;;;;;;5091220;28;20039;-78
2021/08/01 00:59:05;;;;;;;3.83;3.28;;;;;;;;;;5075828;28;20119;-78
2021/08/01 01:01:54;;;;;;;4.05;3.30;;;;;;;;;;5075939;28;20443;-79
2021/08/01 01:04:28;;;;;;;5.68;3.38;;;;;;;;;;5066169;28;20036;-80
2021/08/01 01:07:09;;;;;;;5.90;3.25;;;;;;;;;;5086563;28;20024;-80
2021/08/01 01:09:45;;;;;;;5.43;3.00;;;;;;;;;;5096154;28;20071;-79
2021/08/01 01:12:13;;;;;;;4.68;2.78;;;;;;;;;;5095869;28;20044;-79
2021/08/01 01:14:49;;;;;;;4.85;2.90;;;;;;;;;;5097216;28;20062;-78
2021/08/01 01:17:20;;;;;;;4.88;3.15;;;;;;;;;;5091643;28;20067;-79
2021/08/01 01:19:52;;;;;;;7.47;3.42;;;;;;;;;;5074974;28;20028;-79
2021/08/01 01:22:40;;;;;;;8.57;4.13;;;;;;;;;;5075995;28;20029;-79
2021/08/01 01:25:11;;;;;;;10.23;3.85;;;;;;;;;;5068683;28;20066;-78
2021/08/01 01:27:44;;;;;;;5.63;5.05;;;;;;;;;;5086171;28;20036;-79
2021/08/01 01:30:10;;;;;;;8.82;5.35;;;;;;;;;;5096234;28;20023;-78
2021/08/01 01:32:36;;;;;;;6.40;5.60;;;;;;;;;;5095607;28;20032;-79
2021/08/01 01:35:18;;;;;;;7.38;5.90;;;;;;;;;;5095177;28;20071;-79
2021/08/01 01:37:44;;;;;;;;;;;;;;;;;;5097847;28;20042;-80
2021/08/01 01:40:11;;;;;;;6.97;5.15;;;;;;;;;;5097383;28;19904;-80
2021/08/01 01:42:37;;;;;;;7.57;5.90;;;;;;;;;;5095597;28;20035;-80
2021/08/01 01:45:04;;;;;;;7.40;5.72;;;;;;;;;;5097203;28;20473;-80
2021/08/01 01:47:31;;;;;;;10.65;6.47;;;;;;;;;;5086992;28;20036;-79
2021/08/01 01:49:58;;;;;;;17.52;6.93;;;;;;;;;;5096373;28;20357;-80
2021/08/01 01:52:25;;;;;;;10.90;7.28;;;;;;;;;;5096102;28;20021;-80
2021/08/01 01:54:52;;;;;;;11.18;8.48;;;;;;;;;;5096954;28;20032;-80
2021/08/01 01:57:18;;;;;;;9.52;8.15;;;;;;;;;;5098296;28;20036;-79
2021/08/01 01:59:48;;;;;;;10.68;7.85;;;;;;;;;;5094761;28;20047;-80
2021/08/01 02:02:14;;;;;;;14.43;8.52;;;;;;;;;;5097517;28;20028;-80
2021/08/01 02:04:40;;;;;;;11.15;8.63;;;;;;;;;;5096984;28;20115;-80
2021/08/01 02:07:07;;;;;;;9.88;8.23;;;;;;;;;;5096177;28;20028;-79
2021/08/01 02:09:44;;;;;;;10.05;8.20;;;;;;;;;;5082032;28;20465;-78
2021/08/01 02:12:16;;;;;;;14.07;9.38;;;;;;;;;;5078281;28;20082;-78
2021/08/01 02:14:54;;;;;;;16.33;9.85;;;;;;;;;;5080804;28;20430;-79
2021/08/01 02:17:24;;;;;;;12.23;9.80;;;;;;;;;;5089640;28;20101;-79
2021/08/01 02:19:51;;;;;;;15.23;9.85;;;;;;;;;;5078989;28;20041;-81
2021/08/01 02:22:18;;;;;;;19.85;10.43;;;;;;;;;;5076217;28;20029;-80
2021/08/01 02:24:45;;;;;;;12.07;9.75;;;;;;;;;;5077423;28;20090;-81
2021/08/01 02:27:11;;;;;;;17.17;11.07;;;;;;;;;;5077828;28;20120;-80
2021/08/01 02:29:38;;;;;;;20.23;12.48;;;;;;;;;;5086404;28;20028;-80
2021/08/01 02:32:05;;;;;;;23.65;13.25;;;;;;;;;;5095689;28;20080;-80
2021/08/01 02:34:31;;;;;;;13.80;10.70;;;;;;;;;;5098701;28;20158;-79
2021/08/01 02:36:58;;;;;;;15.15;11.27;;;;;;;;;;5097702;28;20127;-79
2021/08/01 02:39:24;;;;;;;14.77;10.82;;;;;;;;;;5092243;28;20044;-80
2021/08/01 02:41:52;;;;;;;13.57;10.13;;;;;;;;;;5076964;28;20051;-79
2021/08/01 02:44:20;;;;;;;15.45;10.45;;;;;;;;;;5081599;28;20080;-78
2021/08/01 02:46:47;;;;;;;14.05;9.90;;;;;;;;;;5095079;28;20052;-78
2021/08/01 02:49:20;;;;;;;13.70;10.27;;;;;;;;;;5103844;28;20012;-77
2021/08/01 02:51:47;;;;;;;14.10;10.48;;;;;;;;;;5087705;28;20047;-77
2021/08/01 02:54:14;;;;;;;15.75;10.77;;;;;;;;;;5086445;28;20111;-80
2021/08/01 02:56:40;;;;;;;22.70;11.25;;;;;;;;;;5077777;28;20031;-80
2021/08/01 02:59:07;;;;;;;13.27;9.85;;;;;;;;;;5076192;28;20115;-79
2021/08/01 03:01:43;;;;;;;12.70;10.95;;;;;;;;;;5092312;28;20049;-80
2021/08/01 03:04:13;;;;;;;15.30;11.88;;;;;;;;;;5094795;28;20169;-80
2021/08/01 03:06:42;;;;;;;23.17;13.10;;;;;;;;;;5096221;28;20043;-80
2021/08/01 03:09:10;;;;;;;13.90;11.90;;;;;;;;;;5100588;28;20030;-78
2021/08/01 03:11:37;;;;;;;18.75;13.35;;;;;;;;;;5084374;28;20036;-79
2021/08/01 03:14:03;;;;;;;16.75;11.02;;;;;;;;;;5080767;28;20111;-80
2021/08/01 03:16:30;;;;;;;17.65;11.13;;;;;;;;;;5088724;28;20021;-79
2021/08/01 03:18:56;;;;;;;19.85;11.70;;;;;;;;;;5096782;28;20058;-79
2021/08/01 03:21:22;;;;;;;19.05;11.13;;;;;;;;;;5098829;28;20028;-80
2021/08/01 03:23:48;;;;;;;15.60;10.18;;;;;;;;;;5097392;28;20028;-79
2021/08/01 03:26:14;;;;;;;17.23;9.48;;;;;;;;;;5097656;28;20024;-78
2021/08/01 03:28:40;;;;;;;10.80;9.35;;;;;;;;;;5099946;28;20024;-78
2021/08/01 03:31:06;;;;;;;16.30;10.32;;;;;;;;;;5095325;28;20048;-79
2021/08/01 03:33:32;;;;;;;16.58;12.50;;;;;;;;;;5079676;28;20040;-79
2021/08/01 03:35:58;;;;;;;16.85;12.20;;;;;;;;;;5079655;28;20040;-79
2021/08/01 03:38:24;;;;;;;15.18;11.63;;;;;;;;;;5079515;28;20020;-79
2021/08/01 03:40:51;;;;;;;4.47;4.03;;;;;;;;;;5085196;28;20043;-80
2021/08/01 03:43:17;;;;;;;8.73;4.70;;;;;;;;;;5087800;28;20029;-79
2021/08/01 03:45:43;;;;;;;5.93;4.28;;;;;;;;;;5094854;28;20016;-80
2021/08/01 03:48:09;;;;;;;6.10;4.72;;;;;;;;;;5097890;28;20024;-79
2021/08/01 03:50:35;;;;;;;5.10;3.75;;;;;;;;;;5089959;28;20017;-80
2021/08/01 03:53:04;;;;;;;4.63;4.13;;;;;;;;;;5099171;28;20024;-80
2021/08/01 03:55:30;;;;;;;7.60;5.65;;;;;;;;;;5109633;28;20032;-79
2021/08/01 03:57:56;;;;;;;5.03;4.57;;;;;;;;;;5100699;28;20028;-78
2021/08/01 04:00:22;;;;;;;6.20;5.25;;;;;;;;;;5098554;28;20038;-77
2021/08/01 04:02:48;;;;;;;8.52;5.63;;;;;;;;;;5097137;28;20032;-78
2021/08/01 04:05:14;;;;;;;6.68;4.55;;;;;;;;;;5101215;28;20081;-80
2021/08/01 04:07:40;;;;;;;4.78;4.20;;;;;;;;;;5102165;28;20031;-78
2021/08/01 04:10:09;;;;;;;5.70;3.72;;;;;;;;;;5106159;28;20449;-78
2021/08/01 04:12:37;;;;;;;4.85;4.35;;;;;;;;;;5100671;28;20098;-79
2021/08/01 04:15:06;;;;;;;6.68;5.22;;;;;;;;;;5087299;28;20111;-78
2021/08/01 04:17:33;;;;;;;6.32;4.95;;;;;;;;;;5097446;28;20455;-79
2021/08/01 04:20:00;;;;;;;6.60;4.97;;;;;;;;;;5104503;28;20024;-77
2021/08/01 04:22:26;;;;;;;6.43;4.60;;;;;;;;;;5101654;28;20059;-78
2021/08/01 04:24:56;;;;;;;7.30;4.90;;;;;;;;;;5084070;28;20106;-77
2021/08/01 04:27:24;;;;;;;5.78;4.68;;;;;;;;;;5082199;28;20020;-77
2021/08/01 04:29:51;;;;;;;8.60;5.10;;;;;;;;;;5081123;28;20031;-78
2021/08/01 04:32:17;;;;;;;6.22;4.97;;;;;;;;;;5083210;28;20032;-78
2021/08/01 04:34:46;;;;;;;8.55;5.00;;;;;;;;;;5082893;28;20028;-78
2021/08/01 04:37:12;;;;;;;6.57;5.22;;;;;;;;;;5083315;28;20024;-78
2021/08/01 04:39:38;;;;;;;8.70;6.22;;;;;;;;;;5083396;28;20028;-79
2021/08/01 04:42:04;;;;;;;6.03;5.10;;;;;;;;;;5082918;28;20044;-78
2021/08/01 04:44:30;;;;;;;6.25;4.75;;;;;;;;;;5093681;28;20039;-79
2021/08/01 04:46:56;;;;;;;7.30;5.38;;;;;;;;;;5091329;28;20417;-80
2021/08/01 04:49:22;;;;;;;7.82;5.72;;;;;;;;;;5099255;28;20021;-79
2021/08/01 04:51:48;;;;;;;8.75;6.18;;;;;;;;;;5101362;28;20112;-79
2021/08/01 04:54:14;;;;;;;7.32;5.60;;;;;;;;;;5104672;28;20036;-79
2021/08/01 04:56:47;;;;;;;7.38;5.45;;;;;;;;;;5104740;28;20024;-79
2021/08/01 04:59:13;;;;;;;6.47;5.57;;;;;;;;;;5101314;28;20055;-80
2021/08/01 05:01:39;;;;;;;9.20;5.78;;;;;;;;;;5092744;28;20036;-79
2021/08/01 05:04:05;;;;;;;5.55;4.97;;;;;;;;;;5081324;28;20083;-80
2021/08/01 05:06:31;;;;;;;5.25;4.57;;;;;;;;;;5083614;28;20330;-79
2021/08/01 05:08:57;;;;;;;6.53;4.75;;;;;;;;;;5081717;28;20032;-79
2021/08/01 05:11:23;;;;;;;5.10;4.60;;;;;;;;;;5081712;28;20108;-79
2021/08/01 05:13:49;;;;;;;5.32;4.32;;;;;;;;;;5083161;28;20029;-79
2021/08/01 05:16:16;;;;;;;8.40;4.53;;;;;;;;;;5088464;28;20024;-79
2021/08/01 05:18:43;;;;;;;6.22;4.40;;;;;;;;;;5088388;28;20266;-79
2021/08/01 05:21:09;;;;;;;5.43;4.85;;;;;;;;;;5089081;28;20055;-78
2021/08/01 05:23:35;;;;;;;5.78;4.80;;;;;;;;;;5090152;28;20078;-79
2021/08/01 05:26:01;;;;;;;6.05;4.28;;;;;;;;;;5091994;28;20020;-81
2021/08/01 05:28:27;;;;;;;7.70;4.00;;;;;;;;;;5094305;28;20024;-80
2021/08/01 05:30:53;;;;;;;5.35;4.85;;;;;;;;;;5093408;28;20017;-80
2021/08/01 05:33:19;;;;;;;4.32;3.88;;;;;;;;;;5093631;28;20044;-79
2021/08/01 05:35:45;;;;;;;4.68;4.20;;;;;;;;;;5095084;28;20450;-79
2021/08/01 05:38:11;;;;;;;6.80;3.97;;;;;;;;;;5100512;28;20070;-81
2021/08/01 05:40:37;;;;;;;5.20;3.75;;;;;;;;;;5088118;28;20412;-80
2021/08/01 05:43:03;;;;;;;6.03;4.20;;;;;;;;;;5092527;28;20021;-80
2021/08/01 05:45:30;;;;;;;5.53;4.35;;;;;;;;;;5093172;28;20365;-81
2021/08/01 05:47:56;;;;;;;5.18;4.28;;;;;;;;;;5084456;28;20028;-81
2021/08/01 05:50:22;;;;;;;6.40;4.53;;;;;;;;;;5080081;28;20078;-80
2021/08/01 05:52:48;;;;;;;5.18;4.50;;;;;;;;;;5081110;28;20027;-81
2021/08/01 05:55:14;;;;;;;6.72;4.68;;;;;;;;;;5081636;28;20044;-81
2021/08/01 05:57:40;;;;;;;5.15;4.43;;;;;;;;;;5079266;28;20103;-81
2021/08/01 06:00:07;;;;;;;5.07;4.50;;;;;;;;;;5083565;28;20385;-80
2021/08/01 06:02:33;;;;;;;5.80;4.90;;;;;;;;;;5097636;28;20025;-78
2021/08/01 06:04:59;;;;;;;5.07;4.57;;;;;;;;;;5088067;28;20028;-80
2021/08/01 06:07:25;;;;;;;7.95;5.32;;;;;;;;;;5092658;28;20034;-79
2021/08/01 06:09:51;;;;;;;5.55;4.60;;;;;;;;;;5115144;28;20086;-79
2021/08/01 06:12:17;;;;;;;5.57;5.00;;;;;;;;;;5096427;28;20170;-79
2021/08/01 06:14:47;;;;;;;5.10;4.47;;;;;;;;;;5097165;28;20016;-79
2021/08/01 06:17:13;;;;;;;5.07;4.60;;;;;;;;;;5087948;28;20019;-80
2021/08/01 06:19:39;;;;;;;5.47;4.80;;;;;;;;;;5080799;28;20516;-79
2021/08/01 06:22:06;;;;;;;7.65;5.13;;;;;;;;;;5079539;28;20037;-79
2021/08/01 06:24:32;;;;;;;7.35;4.47;;;;;;;;;;5080271;28;20024;-79
2021/08/01 06:26:58;;;;;;;7.43;5.15;;;;;;;;;;5086075;28;20025;-80
2021/08/01 06:29:24;;;;;;;6.40;4.60;;;;;;;;;;5089625;28;20013;-80
2021/08/01 06:31:50;;;;;;;6.53;4.50;;;;;;;;;;5089614;28;20084;-78
2021/08/01 06:34:16;;;;;;;6.28;4.80;;;;;;;;;;5087614;28;20032;-80
2021/08/01 06:36:42;;;;;;;7.88;5.38;;;;;;;;;;5082038;28;20124;-79
2021/08/01 06:39:08;;;;;;;5.80;4.85;;;;;;;;;;5086872;28;20080;-79
2021/08/01 06:41:35;;;;;;;6.60;5.50;;;;;;;;;;5106036;28;20056;-79
2021/08/01 06:44:01;;;;;;;5.45;4.95;;;;;;;;;;5112957;28;20039;-80
2021/08/01 06:46:27;;;;;;;5.18;4.70;;;;;;;;;;5101488;28;20001;-79
2021/08/01 06:48:53;;;;;;;4.68;4.28;;;;;;;;;;5093645;28;20046;-79
2021/08/01 06:51:19;;;;;;;4.50;3.80;;;;;;;;;;5084645;28;20029;-79
2021/08/01 06:53:45;;;;;;;4.05;3.75;;;;;;;;;;5093760;28;20020;-77
2021/08/01 06:56:11;;;;;;;3.90;3.60;;;;;;;;;;5099924;28;20259;-79
2021/08/01 06:58:37;;;;;;;4.10;3.70;;;;;;;;;;5084177;28;20047;-79
2021/08/01 07:01:03;;;;;;;3.60;3.40;;;;;;;;;;5082754;28;20017;-78
2021/08/01 07:03:29;;;;;;;3.53;3.22;;;;;;;;;;5089994;28;20082;-78
2021/08/01 07:05:56;;;;;;;3.03;2.83;;;;;;;;;;5084959;28;20277;-80
2021/08/01 07:08:22;;;;;;;3.00;2.80;;;;;;;;;;5084158;28;20370;-81
2021/08/01 07:10:48;;;;;;;2.65;2.45;;;;;;;;;;5090469;28;20032;-78
2021/08/01 07:13:14;;;;;;;2.47;2.28;;;;;;;;;;5099410;28;20024;-80
2021/08/01 07:15:40;;;;;;;2.50;2.30;;;;;;;;;;5113294;28;20024;-79
2021/08/01 07:18:07;;;;;;;1.85;1.75;;;;;;;;;;5086920;28;20505;-79
2021/08/01 07:20:34;;;;;;;1.90;1.80;;;;;;;;;;5085205;28;20039;-80
2021/08/01 07:23:00;;;;;;;2.63;1.67;;;;;;;;;;5082212;28;20024;-80
2021/08/01 07:25:26;;;;;;;2.08;1.98;;;;;;;;;;5087188;28;20024;-80
2021/08/01 07:27:52;;;;;;;1.70;1.60;;;;;;;;;;5087517;28;20226;-80
2021/08/01 07:30:19;;;;;;;3.08;2.35;;;;;;;;;;5092160;28;21122;-81
2021/08/01 07:32:45;;;;;;;2.50;2.38;;;;;;;;;;5093999;28;20017;-79
2021/08/01 07:35:11;;;;;;;2.30;2.20;;;;;;;;;;5084072;28;20058;-78
2021/08/01 07:37:37;;;;;;;2.45;2.25;;;;;;;;;;5103277;28;20028;-79
2021/08/01 07:40:04;;;;;;;2.30;2.20;;;;;;;;;;5099147;28;20031;-79
2021/08/01 07:42:30;;;;;;;2.67;2.45;;;;;;;;;;5094191;28;20024;-79
2021/08/01 07:45:01;;;;;;;2.63;2.42;;;;;;;;;;5087583;28;20044;-78
2021/08/01 07:47:27;;;;;;;1.98;1.88;;;;;;;;;;5085387;28;20482;-78
2021/08/01 07:49:53;;;;;;;2.35;2.03;;;;;;;;;;5093620;28;20078;-78
2021/08/01 07:52:21;;;;;;;2.60;2.22;;;;;;;;;;5092448;28;20042;-78
2021/08/01 07:54:48;;;;;;;2.08;1.92;;;;;;;;;;5097342;28;20028;-78
2021/08/01 07:57:24;;;;;;;2.85;2.10;;;;;;;;;;5076979;28;20017;-78
2021/08/01 07:59:50;;;;;;;2.20;1.95;;;;;;;;;;5074912;28;20024;-78
2021/08/01 08:02:16;;;;;;;2.70;2.30;;;;;;;;;;5076645;28;20032;-78
2021/08/01 08:04:42;;;;;;;2.25;2.10;;;;;;;;;;5077478;28;20049;-78
2021/08/01 08:07:09;;;;;;;1.83;1.73;;;;;;;;;;5095548;28;20101;-79
2021/08/01 08:09:35;;;;;;;2.25;1.80;;;;;;;;;;5098042;28;20112;-79
2021/08/01 08:12:01;;;;;;;3.20;2.20;;;;;;;;;;5097729;28;20035;-78
2021/08/01 08:14:27;;;;;;;2.65;2.30;;;;;;;;;;5096723;28;20054;-79
2021/08/01 08:16:53;;;;;;;2.13;2.03;;;;;;;;;;5087094;28;20048;-78
2021/08/01 08:19:19;;;;;;;2.58;2.38;;;;;;;;;;5076289;28;20035;-78
2021/08/01 08:21:45;;;;;;;3.83;2.45;;;;;;;;;;5075036;28;20032;-78
2021/08/01 08:24:11;;;;;;;2.35;2.15;;;;;;;;;;5077123;28;20024;-78
2021/08/01 08:26:37;;;;;;;2.70;2.05;;;;;;;;;;5085403;28;20476;-78
2021/08/01 08:29:03;;;;;;;2.45;2.17;;;;;;;;;;5099675;28;20426;-78
2021/08/01 08:31:29;;;;;;;3.28;2.20;;;;;;;;;;5100303;28;20089;-78
2021/08/01 08:33:57;;;;;;;4.35;2.22;;;;;;;;;;5103042;28;20089;-78
2021/08/01 08:36:26;;;;;;;3.83;2.20;;;;;;;;;;5111040;28;20025;-78
2021/08/01 08:38:52;;;;;;;2.15;1.95;;;;;;;;;;5108903;28;20032;-77
2021/08/01 08:41:18;;;;;;;2.50;2.30;;;;;;;;;;5107166;28;20099;-77
2021/08/01 08:43:44;;;;;;;2.80;2.28;;;;;;;;;;5104203;28;20121;-78
2021/08/01 08:46:11;;;;;;;1.98;1.88;;;;;;;;;;5100251;28;20020;-78
2021/08/01 08:48:40;;;;;;;3.05;2.33;;;;;;;;;;5095813;28;20028;-78
2021/08/01 08:51:09;;;;;;;2.83;2.15;;;;;;;;;;5101641;28;20024;-77
2021/08/01 08:53:36;;;;;;;2.40;2.10;;;;;;;;;;5100982;28;20012;-77
2021/08/01 08:56:02;;;;;;;2.42;2.15;;;;;;;;;;5099952;28;20457;-78
2021/08/01 08:58:30;;;;;;;2.03;1.92;;;;;;;;;;5105451;28;20082;-79
2021/08/01 09:00:56;;;;;;;2.20;2.00;;;;;;;;;;5112984;28;20072;-76
2021/08/01 09:03:22;;;;;;;3.80;2.40;;;;;;;;;;5097455;28;20028;-77
2021/08/01 09:05:52;;;;;;;2.58;1.88;;;;;;;;;;5094598;28;20073;-77
2021/08/01 09:08:18;;;;;;;2.38;1.60;;;;;;;;;;5085895;28;20013;-78
2021/08/01 09:10:50;;;;;;;2.53;2.10;;;;;;;;;;5076836;28;20478;-78
2021/08/01 09:13:36;;;;;;;3.55;1.90;;;;;;;;;;5076019;28;20024;-78
2021/08/01 09:16:05;;;;;;;2.50;2.13;;;;;;;;;;5076951;28;20028;-78
2021/08/01 09:18:35;;;;;;;2.25;2.03;;;;;;;;;;5088228;28;20055;-77
2021/08/01 09:21:07;;;;;;;2.75;2.13;;;;;;;;;;5076230;28;20044;-77
2021/08/01 09:23:35;;;;;;;4.25;2.22;;;;;;;;;;5073402;28;20082;-77
2021/08/01 09:26:03;;;;;;;2.30;2.10;;;;;;;;;;5074133;28;20125;-77
2021/08/01 09:28:29;;;;;;;2.40;2.05;;;;;;;;;;5079162;28;20081;-77
2021/08/01 09:30:56;;;;;;;2.80;2.05;;;;;;;;;;5095834;28;20063;-78
2021/08/01 09:33:38;;;;;;;2.38;2.13;;;;;;;;;;5096765;28;20023;-78
2021/08/01 09:36:21;;;;;;;1.70;1.60;;;;;;;;;;5097615;28;20575;-78
2021/08/01 09:38:56;;;;;;;2.05;1.85;;;;;;;;;;5095334;28;20259;-77
2021/08/01 09:41:31;;;;;;;3.78;2.10;;;;;;;;;;5078183;28;20103;-77
2021/08/01 09:44:00;;;;;;;2.38;2.17;;;;;;;;;;5076104;28;20069;-77
2021/08/01 09:46:39;;;;;;;2.20;1.90;;;;;;;;;;5078529;28;20027;-77
2021/08/01 09:49:14;;;;;;;1.73;1.63;;;;;;;;;;5076391;28;20029;-78
2021/08/01 09:51:48;;;;;;;2.05;1.88;;;;;;;;;;5075935;28;20362;-78
2021/08/01 09:54:14;;;;;;;3.13;1.50;;;;;;;;;;5075220;28;20029;-77
2021/08/01 09:56:59;;;;;;;2.88;1.58;;;;;;;;;;5074321;28;20072;-77
2021/08/01 09:59:26;;;;;;;2.55;1.80;;;;;;;;;;5077780;28;20031;-78
2021/08/01 10:01:59;;;;;;;5.20;2.10;;;;;;;;;;5082993;28;20430;-79
2021/08/01 10:04:26;;;;;;;2.58;1.63;;;;;;;;;;5077034;28;20025;-77
2021/08/01 10:07:06;;;;;;;2.03;1.92;;;;;;;;;;5077180;28;20013;-77
2021/08/01 10:09:32;;;;;;;2.47;1.83;;;;;;;;;;5076198;28;20021;-77
2021/08/01 10:11:59;;;;;;;2.13;1.92;;;;;;;;;;5078586;28;20091;-76
2021/08/01 10:14:26;;;;;;;3.95;1.80;;;;;;;;;;5082431;28;20039;-80
2021/08/01 10:16:52;;;;;;;2.40;2.20;;;;;;;;;;5090679;28;20055;-80
2021/08/01 10:19:19;;;;;;;2.60;1.60;;;;;;;;;;5100253;28;20099;-81
2021/08/01 10:21:45;;;;;;;3.08;1.70;;;;;;;;;;5082161;28;20044;-81
2021/08/01 10:24:14;;;;;;;1.60;1.50;;;;;;;;;;5081648;28;20126;-80
2021/08/01 10:26:42;;;;;;;1.75;1.65;;;;;;;;;;5074127;28;20024;-79
2021/08/01 10:29:11;;;;;;;2.28;1.70;;;;;;;;;;5075918;28;20063;-78
2021/08/01 10:31:44;;;;;;;2.08;1.98;;;;;;;;;;5081346;28;20017;-79
2021/08/01 10:34:19;;;;;;;2.78;2.00;;;;;;;;;;5077456;28;20059;-79
2021/08/01 10:36:47;;;;;;;2.83;2.13;;;;;;;;;;5077811;28;20040;-78
2021/08/01 10:39:13;;;;;;;1.55;1.45;;;;;;;;;;5075239;28;20094;-78
2021/08/01 10:41:40;;;;;;;2.25;2.05;;;;;;;;;;5086383;28;20024;-78
2021/08/01 10:44:10;;;;;;;2.65;1.75;;;;;;;;;;5079914;28;20532;-79
2021/08/01 10:46:38;;;;;;;3.55;2.70;;;;;;;;;;5089587;28;20089;-79
2021/08/01 10:49:04;;;;;;;3.15;2.50;;;;;;;;;;5083165;28;20015;-79
2021/08/01 10:51:31;;;;;;;1.77;1.67;;;;;;;;;;5094143;28;20366;-79
2021/08/01 10:54:16;;;;;;;2.35;2.00;;;;;;;;;;5079291;28;20061;-79
2021/08/01 10:56:42;;;;;;;3.20;1.60;;;;;;;;;;5077345;28;20028;-76
2021/08/01 10:59:10;;;;;;;3.47;1.73;;;;;;;;;;5078466;28;20096;-79
2021/08/01 11:01:56;;;;;;;2.90;1.77;;;;;;;;;;5087309;28;20048;-79
2021/08/01 11:04:31;;;;;;;1.60;1.50;;;;;;;;;;5084534;28;20485;-78
2021/08/01 11:06:57;;;;;;;2.40;1.52;;;;;;;;;;5078117;28;20420;-78
2021/08/01 11:09:23;;;;;;;2.42;1.65;;;;;;;;;;5083934;28;20095;-80
2021/08/01 11:12:08;;;;;;;1.60;1.50;;;;;;;;;;5079648;28;20028;-80
2021/08/01 11:14:47;;;;;;;2.17;1.88;;;;;;;;;;5080313;28;20089;-77
2021/08/01 11:17:13;;;;;;;1.50;1.40;;;;;;;;;;5087963;28;20108;-79
2021/08/01 11:19:39;;;;;;;2.25;1.67;;;;;;;;;;5088411;28;20059;-80
2021/08/01 11:22:05;;;;;;;2.67;2.08;;;;;;;;;;5101592;28;20036;-76
2021/08/01 11:24:31;;;;;;;2.13;1.80;;;;;;;;;;5092849;28;20028;-79
2021/08/01 11:27:07;;;;;;;2.85;1.98;;;;;;;;;;5089890;28;20051;-78
2021/08/01 11:29:53;;;;;;;2.63;2.10;;;;;;;;;;5090283;28;20089;-79
2021/08/01 11:32:19;;;;;;;2.35;1.50;;;;;;;;;;5088386;28;20024;-77
2021/08/01 11:34:45;;;;;;;1.95;1.75;;;;;;;;;;5093504;28;20086;-79
2021/08/01 11:37:21;;;;;;;1.35;1.23;;;;;;;;;;5091980;28;20075;-77
2021/08/01 11:39:51;;;;;;;2.55;1.75;;;;;;;;;;5097004;28;20031;-77
2021/08/01 11:42:21;;;;;;;2.13;1.70;;;;;;;;;;5100275;28;20027;-78
2021/08/01 11:44:56;;;;;;;2.75;2.03;;;;;;;;;;5087401;28;20025;-78
2021/08/01 11:47:23;;;;;;;1.48;1.38;;;;;;;;;;5088952;28;20024;-80
2021/08/01 11:49:49;;;;;;;2.15;1.63;;;;;;;;;;5084657;28;20468;-77
2021/08/01 11:52:20;;;;;;;2.50;1.90;;;;;;;;;;5100448;28;20024;-78
2021/08/01 11:54:47;;;;;;;2.50;2.22;;;;;;;;;;5100196;28;20497;-79
2021/08/01 11:57:14;;;;;;;1.80;1.70;;;;;;;;;;5099238;28;20043;-78
2021/08/01 11:59:42;;;;;;;2.30;2.05;;;;;;;;;;5100014;28;20036;-79
2021/08/01 12:02:09;;;;;;;2.75;1.98;;;;;;;;;;5078621;28;20028;-79
2021/08/01 12:04:35;;;;;;;1.90;1.77;;;;;;;;;;5090679;28;20035;-79
2021/08/01 12:07:01;;;;;;;3.28;1.95;;;;;;;;;;5099632;28;20039;-78
2021/08/01 12:09:29;;;;;;;2.50;1.92;;;;;;;;;;5099000;28;20032;-78
2021/08/01 12:11:55;;;;;;;3.25;2.03;;;;;;;;;;5082512;28;20054;-79
2021/08/01 12:14:28;;;;;;;3.35;2.05;;;;;;;;;;5077587;28;20127;-80
2021/08/01 12:17:14;;;;;;;3.05;2.17;;;;;;;;;;5085597;28;20024;-78
2021/08/01 12:19:41;;;;;;;2.10;1.88;;;;;;;;;;5078067;28;20032;-79
2021/08/01 12:22:08;;;;;;;2.53;1.85;;;;;;;;;;5051335;28;1175585;-77
2021/08/01 12:24:40;;;;;;;2.70;2.13;;;;;;;;;;5100960;28;20026;-79
2021/08/01 12:27:15;;;;;;;3.50;2.20;;;;;;;;;;5099929;28;20028;-79
2021/08/01 12:29:49;;;;;;;2.60;1.80;;;;;;;;;;5099167;28;20397;-80
2021/08/01 12:32:24;;;;;;;3.72;1.80;;;;;;;;;;5087183;28;20024;-79
2021/08/01 12:34:51;;;;;;;1.77;1.48;;;;;;;;;;5080118;28;20097;-79
2021/08/01 12:37:17;;;;;;;2.47;2.00;;;;;;;;;;5080553;28;20055;-80
2021/08/01 12:39:47;;;;;;;1.80;1.70;;;;;;;;;;5080076;28;20021;-79
2021/08/01 12:42:14;;;;;;;3.55;1.80;;;;;;;;;;5089442;28;20118;-81
2021/08/01 12:45:09;;;;;;;2.75;2.28;;;;;;;;;;5101117;28;20034;-80
2021/08/01 12:47:35;;;;;;;2.08;1.70;;;;;;;;;;5071426;28;20028;-78
2021/08/01 12:50:06;;;;;;;1.80;1.70;;;;;;;;;;5099730;28;20029;-79
2021/08/01 12:52:33;;;;;;;1.60;1.50;;;;;;;;;;5092451;28;20028;-80
2021/08/01 12:54:59;;;;;;;1.52;1.25;;;;;;;;;;5082922;28;20027;-80
2021/08/01 12:57:25;;;;;;;1.75;1.55;;;;;;;;;;5091188;28;20099;-78
2021/08/01 13:00:08;;;;;;;1.48;1.38;;;;;;;;;;5095484;28;20025;-77
2021/08/01 13:02:35;;;;;;;1.25;1.15;;;;;;;;;;5103947;28;20103;-78
2021/08/01 13:05:01;;;;;;;1.73;1.63;;;;;;;;;;5090897;28;20028;-77
2021/08/01 13:07:27;;;;;;;1.20;1.20;;;;;;;;;;5079443;28;20496;-77
2021/08/01 13:10:03;;;;;;;1.58;1.45;;;;;;;;;;5078660;28;20478;-78
2021/08/01 13:12:29;;;;;;;1.30;1.20;;;;;;;;;;5084667;28;20035;-77
2021/08/01 13:14:56;;;;;;;1.55;1.30;;;;;;;;;;5092031;28;20055;-77
2021/08/01 13:17:41;;;;;;;1.55;1.35;;;;;;;;;;5086391;28;20110;-77
2021/08/01 13:20:08;;;;;;;1.35;1.25;;;;;;;;;;5092623;28;20126;-77
2021/08/01 13:22:34;;;;;;;1.70;1.60;;;;;;;;;;5093294;28;20405;-77
2021/08/01 13:25:00;;;;;;;1.40;1.30;;;;;;;;;;5092748;28;20401;-77
2021/08/01 13:27:28;;;;;;;2.10;1.70;;;;;;;;;;5094240;28;20024;-77
2021/08/01 13:30:13;;;;;;;1.35;1.25;;;;;;;;;;5090163;28;20141;-77
2021/08/01 13:32:40;;;;;;;1.30;1.20;;;;;;;;;;5081260;28;20028;-78
2021/08/01 13:35:16;;;;;;;1.50;1.20;;;;;;;;;;5085200;28;20047;-77
2021/08/01 13:37:42;;;;;;;1.58;1.48;;;;;;;;;;5082168;28;20040;-78
2021/08/01 13:40:08;;;;;;;1.60;1.50;;;;;;;;;;5073560;28;20453;-76
2021/08/01 13:42:47;;;;;;;1.60;1.30;;;;;;;;;;5073622;28;20025;-77
2021/08/01 13:45:14;;;;;;;1.02;1.02;;;;;;;;;;5081686;28;20123;-77
2021/08/01 13:47:48;;;;;;;1.20;1.20;;;;;;;;;;5079917;28;20024;-77
2021/08/01 13:50:15;;;;;;;1.45;1.35;;;;;;;;;;5090140;28;20380;-77
2021/08/01 13:52:45;;;;;;;1.38;1.27;;;;;;;;;;5084392;28;20025;-77
2021/08/01 13:55:11;;;;;;;1.52;1.42;;;;;;;;;;5077512;28;20032;-76
2021/08/01 13:57:37;;;;;;;1.38;1.30;;;;;;;;;;5080452;28;20028;-77
2021/08/01 14:00:05;;;;;;;1.38;1.20;;;;;;;;;;5083197;28;20066;-76
2021/08/01 14:02:31;;;;;;;1.50;1.40;;;;;;;;;;5088506;28;20480;-76
2021/08/01 14:04:57;;;;;;;1.13;1.13;;;;;;;;;;5086658;28;20066;-76
2021/08/01 14:07:24;;;;;;;1.58;1.48;;;;;;;;;;5083372;28;20038;-77
2021/08/01 14:09:51;;;;;;;1.40;1.05;;;;;;;;;;5091414;28;20016;-76
2021/08/01 14:12:17;;;;;;;2.70;1.27;;;;;;;;;;5092910;28;20392;-77
2021/08/01 14:14:43;;;;;;;1.15;1.15;;;;;;;;;;5092342;28;20492;-77
2021/08/01 14:17:10;;;;;;;1.10;1.10;;;;;;;;;;5082757;28;20040;-76
2021/08/01 14:19:36;;;;;;;1.23;1.13;;;;;;;;;;5081366;28;20153;-76
2021/08/01 14:22:03;;;;;;;2.90;1.60;;;;;;;;;;5080300;28;20035;-79
2021/08/01 14:24:29;;;;;;;1.40;1.30;;;;;;;;;;5084529;28;20039;-77
2021/08/01 14:26:56;;;;;;;1.65;1.52;;;;;;;;;;5094793;28;20044;-78
2021/08/01 14:29:23;;;;;;;1.50;1.40;;;;;;;;;;5094087;28;20111;-77
2021/08/01 14:31:53;;;;;;;1.83;1.27;;;;;;;;;;5092821;28;20399;-77
2021/08/01 14:34:22;;;;;;;2.25;1.40;;;;;;;;;;5095940;28;20111;-78
2021/08/01 14:36:48;;;;;;;1.48;1.38;;;;;;;;;;5093436;28;20070;-77
2021/08/01 14:39:17;;;;;;;1.40;1.30;;;;;;;;;;5079807;28;20446;-76
2021/08/01 14:41:43;;;;;;;3.13;2.03;;;;;;;;;;5092910;28;20392;-77
2021/08/01 14:44:10;;;;;;;2.10;1.55;;;;;;;;;;5094015;28;20040;-78
2021/08/01 14:46:38;;;;;;;1.60;1.40;;;;;;;;;;5086617;28;20028;-77